Latest Coastal Weather Observations for Noarlunga

IDS60701

Issued at 4:25 pm CST Tuesday 29 July 2014 (issued every 10 minutes, with the page automatically refreshed every 10 minutes)

About coastal observations | Map of coastal stations | Coastal observations for SA | Marine services | Other Formats
Station Details ID: 023885 Name: NOARLUNGA Lat: -35.16 Lon: 138.51 Height: 55.0 m
Data from the previous 72 hours. | See also: Recent months at Noarlunga
Date/Time
CST
Temp

°C
Wind Pressure Rain
since 9am
mm
Weather Cloud Vis
km
Sea
Height
m
Swell
Dir
 
Speed
knots
Gust
knots
hPa Trend Height
m
Period
s
Dir
29/04:00pm 13.9 NW 14 19 - - 0.4 - - - - - - -
29/03:30pm 14.4 NW 12 19 - - 0.0 - - - - - - -
29/03:00pm 14.7 NW 13 20 - - 0.0 - - - - - - -
29/02:30pm 14.8 NNW 12 18 - - 0.0 - - - - - - -
29/02:00pm 14.8 NNW 12 22 - - 0.0 - - - - - - -
29/01:30pm 15.2 NW 14 22 - - 0.0 - - - - - - -
29/01:00pm 15.3 NW 13 20 - - 0.0 - - - - - - -
29/12:30pm 15.3 NW 15 25 - - 0.0 - - - - - - -
29/12:00pm 14.1 NNW 13 20 - - 0.0 - - - - - - -
29/11:30am 14.4 NNW 15 22 - - 0.0 - - - - - - -
29/11:00am 14.3 NNW 16 25 - - 0.0 - - - - - - -
29/10:33am 14.0 NNW 15 25 - - 0.0 - - - - - - -
29/10:30am 14.0 NNW 16 25 - - 0.0 - - - - - - -
29/10:10am 14.3 NNW 16 26 - - 0.0 - - - - - - -
29/10:00am 14.2 NNW 17 25 - - 0.0 - - - - - - -
29/09:30am 14.0 NNW 17 28 - - 0.0 - - - - - - -
29/09:01am 13.6 NNW 16 26 - - 0.0 - - - - - - -
29/09:00am 13.6 NNW 17 26 - - 0.0 - - - - - - -
29/08:58am 13.6 NNW 16 26 - - 0.0 - - - - - - -
29/08:30am 12.9 NNW 11 18 - - 0.0 - - - - - - -
29/08:00am 12.8 NNW 16 24 - - 0.0 - - - - - - -
29/07:30am 12.5 NNW 13 18 - - 0.0 - - - - - - -
29/07:00am 12.8 NNW 16 25 - - 0.0 - - - - - - -
29/06:30am 12.3 NNW 15 24 - - 0.0 - - - - - - -
29/06:00am 11.9 N 14 19 - - 0.0 - - - - - - -
29/05:30am 12.1 N 14 22 - - 0.0 - - - - - - -
29/05:00am 11.0 N 14 21 - - 0.0 - - - - - - -
29/04:30am 11.6 N 15 24 - - 0.0 - - - - - - -
29/04:00am 11.5 N 15 20 - - 0.0 - - - - - - -
29/03:30am 11.5 N 12 17 - - 0.0 - - - - - - -
29/03:00am 11.9 N 11 17 - - 0.0 - - - - - - -
29/02:30am 12.1 N 11 16 - - 0.0 - - - - - - -
29/02:00am 12.6 N 12 16 - - 0.0 - - - - - - -
29/01:30am 12.9 N 13 20 - - 0.0 - - - - - - -
29/01:00am 12.6 N 11 16 - - 0.0 - - - - - - -
29/12:30am 12.8 N 12 16 - - 0.0 - - - - - - -
29/12:00am 12.9 NNW 11 15 - - 0.0 - - - - - - -
 
Date/Time
CST
Temp

°C
Wind Pressure Rain
since 9am
mm
Weather Cloud Vis
km
Sea
Height
m
Swell
Dir
 
Speed
knots
Gust
knots
hPa Trend Height
m
Period
s
Dir
28/11:30pm 13.1 NNW 12 20 - - 0.0 - - - - - - -
28/11:00pm 13.1 NNW 11 18 - - 0.0 - - - - - - -
28/10:30pm 12.7 N 11 15 - - 0.0 - - - - - - -
28/10:00pm 12.9 N 12 19 - - 0.0 - - - - - - -
28/09:30pm 13.0 NNW 11 15 - - 0.0 - - - - - - -
28/09:00pm 13.0 N 11 16 - - 0.0 - - - - - - -
28/08:30pm 12.9 N 12 16 - - 0.0 - - - - - - -
28/08:00pm 12.7 N 10 14 - - 0.0 - - - - - - -
28/07:30pm 13.0 N 12 18 - - 0.0 - - - - - - -
28/07:00pm 13.1 N 12 16 - - 0.0 - - - - - - -
28/06:30pm 13.2 N 11 15 - - 0.0 - - - - - - -
28/06:00pm 13.1 N 11 16 - - 0.0 - - - - - - -
28/05:30pm 13.4 N 11 17 - - 0.0 - - - - - - -
28/05:00pm 13.8 N 12 18 - - 0.0 - - - - - - -
28/04:30pm 14.1 N 13 19 - - 0.0 - - - - - - -
28/04:00pm 14.5 N 13 19 - - 0.0 - - - - - - -
28/03:30pm 14.7 N 13 21 - - 0.0 - - - - - - -
28/03:00pm 14.7 N 14 20 - - 0.0 - - - - - - -
28/02:30pm 14.4 N 12 18 - - 0.0 - - - - - - -
28/02:00pm 14.8 N 11 17 - - 0.0 - - - - - - -
28/01:30pm 13.8 NNW 10 15 - - 0.0 - - - - - - -
28/01:00pm 14.9 N 10 14 - - 0.0 - - - - - - -
28/12:30pm 14.4 NNW 11 15 - - 0.0 - - - - - - -
28/12:00pm 14.4 N 11 16 - - 0.0 - - - - - - -
28/11:30am 13.5 N 12 17 - - 0.0 - - - - - - -
28/11:00am 13.6 N 10 16 - - 0.0 - - - - - - -
28/10:30am 13.2 N 10 15 - - 0.0 - - - - - - -
28/10:00am 12.7 N 10 14 - - 0.0 - - - - - - -
28/09:30am 12.5 NNW 11 15 - - 0.0 - - - - - - -
28/09:00am 12.4 N 10 15 - - 0.2 - - - - - - -
28/08:30am 12.0 N 9 13 - - 0.2 - - - - - - -
28/08:00am 11.8 N 7 10 - - 0.2 - - - - - - -
28/07:30am 11.7 N 10 14 - - 0.2 - - - - - - -
28/07:00am 11.6 N 8 11 - - 0.2 - - - - - - -
28/06:30am 11.8 N 6 11 - - 0.2 - - - - - - -
28/06:00am 12.2 N 9 11 - - 0.2 - - - - - - -
28/05:30am 12.3 N 7 12 - - 0.2 - - - - - - -
28/05:00am 12.2 N 9 12 - - 0.2 - - - - - - -
28/04:30am 12.3 N 10 13 - - 0.2 - - - - - - -
28/04:00am 12.4 N 8 12 - - 0.2 - - - - - - -
28/03:30am 12.2 N 10 14 - - 0.2 - - - - - - -
28/03:00am 11.8 N 8 11 - - 0.2 - - - - - - -
28/02:30am 12.0 N 8 11 - - 0.2 - - - - - - -
28/02:00am 12.3 N 8 12 - - 0.2 - - - - - - -
28/01:30am 12.6 N 10 14 - - 0.2 - - - - - - -
28/01:00am 12.6 N 8 11 - - 0.2 - - - - - - -
28/12:30am 13.4 N 9 14 - - 0.2 - - - - - - -
28/12:00am 14.3 N 13 19 - - 0.2 - - - - - - -
 
Date/Time
CST
Temp

°C
Wind Pressure Rain
since 9am
mm
Weather Cloud Vis
km
Sea
Height
m
Swell
Dir
 
Speed
knots
Gust
knots
hPa Trend Height
m
Period
s
Dir
27/11:30pm 14.8 N 12 17 - - 0.2 - - - - - - -
27/11:00pm 14.5 N 12 16 - - 0.2 - - - - - - -
27/10:30pm 14.7 N 14 22 - - 0.2 - - - - - - -
27/10:00pm 15.1 N 15 23 - - 0.2 - - - - - - -
27/09:30pm 15.3 N 14 20 - - 0.2 - - - - - - -
27/09:00pm 15.4 N 13 19 - - 0.2 - - - - - - -
27/08:30pm 15.9 N 15 20 - - 0.2 - - - - - - -
27/08:00pm 15.9 N 16 25 - - 0.2 - - - - - - -
27/07:30pm 15.6 N 14 20 - - 0.2 - - - - - - -
27/07:00pm 15.8 N 13 19 - - 0.2 - - - - - - -
27/06:30pm 15.9 N 14 21 - - 0.2 - - - - - - -
27/06:00pm 15.9 N 13 19 - - 0.2 - - - - - - -
27/05:30pm 15.6 N 14 18 - - 0.2 - - - - - - -
27/05:00pm 15.4 N 14 22 - - 0.2 - - - - - - -
27/04:30pm 15.2 N 15 21 - - 0.2 - - - - - - -
27/04:00pm 15.2 N 15 21 - - 0.2 - - - - - - -
27/03:30pm 15.3 N 15 22 - - 0.2 - - - - - - -
27/03:00pm 15.4 N 15 22 - - 0.2 - - - - - - -
27/02:30pm 15.2 N 15 22 - - 0.2 - - - - - - -
27/02:02pm 14.8 N 15 25 - - 0.2 - - - - - - -
27/02:00pm 14.6 N 16 25 - - 0.2 - - - - - - -
27/01:30pm 14.5 N 17 26 - - 0.2 - - - - - - -
27/01:10pm 14.3 N 17 28 - - 0.0 - - - - - - -
27/01:00pm 14.3 N 19 26 - - 0.0 - - - - - - -
27/12:33pm 14.1 N 17 28 - - 0.0 - - - - - - -
27/12:30pm 14.1 N 17 25 - - 0.0 - - - - - - -
27/12:00pm 13.6 N 17 24 - - 0.0 - - - - - - -
27/11:30am 13.9 N 18 27 - - 0.0 - - - - - - -
27/11:01am 14.0 N 16 27 - - 0.0 - - - - - - -
27/11:00am 14.0 N 17 27 - - 0.0 - - - - - - -
27/10:30am 14.2 N 17 23 - - 0.0 - - - - - - -
27/10:00am 13.5 N 14 19 - - 0.0 - - - - - - -
27/09:30am 13.4 N 16 23 - - 0.0 - - - - - - -
27/09:00am 12.7 N 16 23 - - 0.0 - - - - - - -
27/08:30am 11.5 N 12 19 - - 0.0 - - - - - - -
27/08:00am 11.0 N 11 15 - - 0.0 - - - - - - -
27/07:30am 10.6 NNE 9 14 - - 0.0 - - - - - - -
27/07:00am 10.7 NNE 10 15 - - 0.0 - - - - - - -
27/06:30am 10.6 N 9 12 - - 0.0 - - - - - - -
27/06:00am 10.6 N 10 14 - - 0.0 - - - - - - -
27/05:30am 10.9 N 11 16 - - 0.0 - - - - - - -
27/05:00am 10.7 N 11 16 - - 0.0 - - - - - - -
27/04:30am 10.6 N 12 17 - - 0.0 - - - - - - -
27/04:00am 10.9 N 12 15 - - 0.0 - - - - - - -
27/03:30am 11.2 N 11 15 - - 0.0 - - - - - - -
27/03:00am 11.2 N 9 12 - - 0.0 - - - - - - -
27/02:30am 11.2 NNE 8 11 - - 0.0 - - - - - - -
27/02:00am 10.8 NNE 8 12 - - 0.0 - - - - - - -
27/01:30am 10.3 NE 9 11 - - 0.0 - - - - - - -
27/01:00am 10.2 NE 8 10 - - 0.0 - - - - - - -
27/12:30am 10.4 NE 8 11 - - 0.0 - - - - - - -
27/12:00am 10.2 NE 8 10 - - 0.0 - - - - - - -
 
Date/Time
CST
Temp

°C
Wind Pressure Rain
since 9am
mm
Weather Cloud Vis
km
Sea
Height
m
Swell
Dir
 
Speed
knots
Gust
knots
hPa Trend Height
m
Period
s
Dir
26/11:30pm 10.2 NE 9 11 - - 0.0 - - - - - - -
26/11:00pm 10.2 NNE 8 11 - - 0.0 - - - - - - -
26/10:30pm 10.3 NE 8 10 - - 0.0 - - - - - - -
26/10:00pm 10.4 NE 7 10 - - 0.0 - - - - - - -
26/09:30pm 10.7 NNE 7 10 - - 0.0 - - - - - - -
26/09:00pm 10.7 NE 7 10 - - 0.0 - - - - - - -
26/08:30pm 10.5 NE 7 10 - - 0.0 - - - - - - -
26/08:00pm 10.6 NE 6 8 - - 0.0 - - - - - - -
26/07:30pm 10.7 NE 6 7 - - 0.0 - - - - - - -
26/07:00pm 11.1 NE 5 7 - - 0.0 - - - - - - -
26/06:30pm 11.6 NNE 5 7 - - 0.0 - - - - - - -
26/06:00pm 12.1 N 5 7 - - 0.0 - - - - - - -
26/05:30pm 12.7 N 7 9 - - 0.0 - - - - - - -
26/05:00pm 13.3 N 7 9 - - 0.0 - - - - - - -
26/04:30pm 13.9 N 8 11 - - 0.0 - - - - - - -

Other Formats:

Comma delimited format used in spreadsheet applications
http://www.bom.gov.au/fwo/IDS60701/IDS60701.94808.axf

JavaScript Object Notation format (JSON) in row-major order
http://www.bom.gov.au/fwo/IDS60701/IDS60701.94808.json